sensor_id;sensor_type;location;lat;lon;timestamp;pressure;altitude;pressure_sealevel;temperature;humidity
9676;BME280;4876;42.656;23.292;2023-03-02T00:02:13;94648.91;;;4.89;100.00
9676;BME280;4876;42.656;23.292;2023-03-02T00:04:44;94642.94;;;4.78;100.00
9676;BME280;4876;42.656;23.292;2023-03-02T00:07:15;94649.47;;;4.80;100.00
9676;BME280;4876;42.656;23.292;2023-03-02T00:09:43;94643.19;;;4.81;100.00
9676;BME280;4876;42.656;23.292;2023-03-02T00:12:11;94642.69;;;4.84;100.00
9676;BME280;4876;42.656;23.292;2023-03-02T00:14:41;94643.69;;;4.89;100.00
9676;BME280;4876;42.656;23.292;2023-03-02T00:17:09;94638.75;;;4.92;100.00
9676;BME280;4876;42.656;23.292;2023-03-02T00:19:37;94633.53;;;4.97;99.92
9676;BME280;4876;42.656;23.292;2023-03-02T00:22:04;94628.03;;;4.99;99.74
9676;BME280;4876;42.656;23.292;2023-03-02T00:24:31;94622.28;;;4.97;100.00
9676;BME280;4876;42.656;23.292;2023-03-02T00:26:58;94632.97;;;4.95;99.81
9676;BME280;4876;42.656;23.292;2023-03-02T00:29:25;94631.66;;;5.03;100.00
9676;BME280;4876;42.656;23.292;2023-03-02T00:31:53;94628.03;;;5.04;99.67
9676;BME280;4876;42.656;23.292;2023-03-02T00:34:21;94623.31;;;5.01;99.53
9676;BME280;4876;42.656;23.292;2023-03-02T00:36:49;94624.66;;;4.93;99.31
9676;BME280;4876;42.656;23.292;2023-03-02T00:39:15;94616.31;;;4.96;98.87
9676;BME280;4876;42.656;23.292;2023-03-02T00:41:45;94614.72;;;5.00;98.68
9676;BME280;4876;42.656;23.292;2023-03-02T00:44:13;94599.88;;;4.96;98.42
9676;BME280;4876;42.656;23.292;2023-03-02T00:46:42;94608.72;;;5.05;98.26
9676;BME280;4876;42.656;23.292;2023-03-02T00:49:10;94597.00;;;5.02;98.14
9676;BME280;4876;42.656;23.292;2023-03-02T00:51:39;94597.00;;;5.02;98.00
9676;BME280;4876;42.656;23.292;2023-03-02T00:54:12;94598.59;;;4.93;98.02
9676;BME280;4876;42.656;23.292;2023-03-02T00:56:46;94598.59;;;4.93;98.35
9676;BME280;4876;42.656;23.292;2023-03-02T00:59:16;94596.53;;;4.90;98.15
9676;BME280;4876;42.656;23.292;2023-03-02T01:02:37;94596.75;;;5.04;97.94
9676;BME280;4876;42.656;23.292;2023-03-02T01:05:26;94589.22;;;4.97;98.82
9676;BME280;4876;42.656;23.292;2023-03-02T01:08:05;94587.41;;;4.93;99.83
9676;BME280;4876;42.656;23.292;2023-03-02T01:10:33;94570.53;;;4.75;99.88
9676;BME280;4876;42.656;23.292;2023-03-02T01:13:04;94551.34;;;4.55;100.00
9676;BME280;4876;42.656;23.292;2023-03-02T01:15:32;94577.84;;;4.73;100.00
9676;BME280;4876;42.656;23.292;2023-03-02T01:18:02;94578.38;;;4.70;100.00
9676;BME280;4876;42.656;23.292;2023-03-02T01:20:29;94572.41;;;4.59;100.00
9676;BME280;4876;42.656;23.292;2023-03-02T01:22:58;94577.88;;;4.57;100.00
9676;BME280;4876;42.656;23.292;2023-03-02T01:25:26;94577.38;;;4.55;100.00
9676;BME280;4876;42.656;23.292;2023-03-02T01:27:54;94580.50;;;4.52;100.00
9676;BME280;4876;42.656;23.292;2023-03-02T01:30:22;94580.25;;;4.54;100.00
9676;BME280;4876;42.656;23.292;2023-03-02T01:32:49;94583.88;;;4.58;100.00
9676;BME280;4876;42.656;23.292;2023-03-02T01:35:16;94585.41;;;4.64;100.00
9676;BME280;4876;42.656;23.292;2023-03-02T01:37:43;94569.00;;;4.64;100.00
9676;BME280;4876;42.656;23.292;2023-03-02T01:40:12;94567.47;;;4.63;100.00
9676;BME280;4876;42.656;23.292;2023-03-02T01:42:46;94571.91;;;4.62;100.00
9676;BME280;4876;42.656;23.292;2023-03-02T01:45:43;94571.88;;;4.67;100.00
9676;BME280;4876;42.656;23.292;2023-03-02T01:48:15;94568.22;;;4.68;100.00
9676;BME280;4876;42.656;23.292;2023-03-02T01:50:43;94557.00;;;4.73;100.00
9676;BME280;4876;42.656;23.292;2023-03-02T01:53:16;94558.03;;;4.77;100.00
9676;BME280;4876;42.656;23.292;2023-03-02T01:55:44;94557.78;;;4.78;100.00
9676;BME280;4876;42.656;23.292;2023-03-02T01:58:14;94560.34;;;4.83;100.00
9676;BME280;4876;42.656;23.292;2023-03-02T02:00:44;94555.66;;;4.80;100.00
9676;BME280;4876;42.656;23.292;2023-03-02T02:06:30;94536.47;;;4.61;100.00
9676;BME280;4876;42.656;23.292;2023-03-02T02:08:59;94562.72;;;4.75;99.97
9676;BME280;4876;42.656;23.292;2023-03-02T02:11:26;94547.94;;;4.60;100.00
9676;BME280;4876;42.656;23.292;2023-03-02T02:13:56;94554.94;;;4.65;100.00
9676;BME280;4876;42.656;23.292;2023-03-02T02:16:24;94559.38;;;4.64;100.00
9676;BME280;4876;42.656;23.292;2023-03-02T02:18:51;94554.16;;;4.64;100.00
9676;BME280;4876;42.656;23.292;2023-03-02T02:21:18;94557.53;;;4.65;100.00
9676;BME280;4876;42.656;23.292;2023-03-02T02:23:49;94565.91;;;4.56;100.00
9676;BME280;4876;42.656;23.292;2023-03-02T02:26:26;94559.94;;;4.56;100.00
9676;BME280;4876;42.656;23.292;2023-03-02T02:28:58;94566.19;;;4.60;100.00
9676;BME280;4876;42.656;23.292;2023-03-02T02:31:32;94568.25;;;4.63;100.00
9676;BME280;4876;42.656;23.292;2023-03-02T02:34:04;94567.75;;;4.51;100.00
9676;BME280;4876;42.656;23.292;2023-03-02T02:36:43;94540.72;;;4.37;100.00
9676;BME280;4876;42.656;23.292;2023-03-02T02:39:16;94557.41;;;4.36;100.00
9676;BME280;4876;42.656;23.292;2023-03-02T02:41:47;94560.53;;;4.27;100.00
9676;BME280;4876;42.656;23.292;2023-03-02T02:44:15;94558.69;;;4.28;100.00
9676;BME280;4876;42.656;23.292;2023-03-02T02:46:43;94562.84;;;4.39;100.00
9676;BME280;4876;42.656;23.292;2023-03-02T02:49:20;94551.91;;;4.37;100.00
9676;BME280;4876;42.656;23.292;2023-03-02T02:51:51;94550.59;;;4.35;100.00
9676;BME280;4876;42.656;23.292;2023-03-02T02:54:18;94539.41;;;4.34;100.00
9676;BME280;4876;42.656;23.292;2023-03-02T02:56:48;94549.09;;;4.23;100.00
9676;BME280;4876;42.656;23.292;2023-03-02T02:59:18;94549.59;;;4.30;100.00
9676;BME280;4876;42.656;23.292;2023-03-02T03:01:47;94557.91;;;4.38;100.00
9676;BME280;4876;42.656;23.292;2023-03-02T03:04:17;94553.47;;;4.43;100.00
9676;BME280;4876;42.656;23.292;2023-03-02T03:06:50;94547.47;;;4.48;100.00
9676;BME280;4876;42.656;23.292;2023-03-02T03:09:17;94546.94;;;4.51;100.00
9676;BME280;4876;42.656;23.292;2023-03-02T03:11:48;94553.16;;;4.60;100.00
9676;BME280;4876;42.656;23.292;2023-03-02T03:14:17;94543.81;;;4.54;100.00
9676;BME280;4876;42.656;23.292;2023-03-02T03:16:46;94551.09;;;4.52;100.00
9676;BME280;4876;42.656;23.292;2023-03-02T03:19:17;94540.44;;;4.48;100.00
9676;BME280;4876;42.656;23.292;2023-03-02T03:21:49;94539.66;;;4.43;100.00
9676;BME280;4876;42.656;23.292;2023-03-02T03:24:17;94538.34;;;4.45;100.00
9676;BME280;4876;42.656;23.292;2023-03-02T03:26:44;94540.19;;;4.35;100.00
9676;BME280;4876;42.656;23.292;2023-03-02T03:29:13;94547.75;;;4.36;100.00
9676;BME280;4876;42.656;23.292;2023-03-02T03:31:40;94545.66;;;4.38;100.00
9676;BME280;4876;42.656;23.292;2023-03-02T03:34:08;94531.94;;;4.22;100.00
9676;BME280;4876;42.656;23.292;2023-03-02T03:36:35;94543.06;;;4.33;100.00
9676;BME280;4876;42.656;23.292;2023-03-02T03:39:03;94545.44;;;4.29;100.00
9676;BME280;4876;42.656;23.292;2023-03-02T03:41:31;94544.13;;;4.32;100.00
9676;BME280;4876;42.656;23.292;2023-03-02T03:43:58;94550.66;;;4.29;100.00
9676;BME280;4876;42.656;23.292;2023-03-02T03:46:26;94545.16;;;4.31;100.00
9676;BME280;4876;42.656;23.292;2023-03-02T03:48:53;94548.56;;;4.26;100.00
9676;BME280;4876;42.656;23.292;2023-03-02T03:51:20;94534.28;;;4.14;100.00
9676;BME280;4876;42.656;23.292;2023-03-02T03:53:47;94544.94;;;4.22;100.00
9676;BME280;4876;42.656;23.292;2023-03-02T03:56:24;94545.19;;;4.26;100.00
9676;BME280;4876;42.656;23.292;2023-03-02T03:58:51;94540.19;;;4.35;100.00
9676;BME280;4876;42.656;23.292;2023-03-02T04:01:33;94537.34;;;4.31;100.00
9676;BME280;4876;42.656;23.292;2023-03-02T04:04:02;94492.44;;;3.95;100.00
9676;BME280;4876;42.656;23.292;2023-03-02T04:06:29;94540.19;;;4.35;100.00
9676;BME280;4876;42.656;23.292;2023-03-02T04:08:56;94513.97;;;4.16;100.00
9676;BME280;4876;42.656;23.292;2023-03-02T04:11:29;94548.81;;;4.30;100.00
9676;BME280;4876;42.656;23.292;2023-03-02T04:13:56;94540.75;;;4.31;100.00
9676;BME280;4876;42.656;23.292;2023-03-02T04:16:24;94547.78;;;4.31;100.00
9676;BME280;4876;42.656;23.292;2023-03-02T04:18:52;94543.34;;;4.26;100.00
9676;BME280;4876;42.656;23.292;2023-03-02T04:21:19;94543.84;;;4.28;100.00
9676;BME280;4876;42.656;23.292;2023-03-02T04:23:46;94541.03;;;4.25;100.00
9676;BME280;4876;42.656;23.292;2023-03-02T04:26:13;94539.75;;;4.17;100.00
9676;BME280;4876;42.656;23.292;2023-03-02T04:28:40;94535.31;;;4.18;100.00
9676;BME280;4876;42.656;23.292;2023-03-02T04:31:06;94534.53;;;4.12;100.00
9676;BME280;4876;42.656;23.292;2023-03-02T04:33:33;94544.94;;;4.17;100.00
9676;BME280;4876;42.656;23.292;2023-03-02T04:36:02;94543.91;;;4.08;100.00
9676;BME280;4876;42.656;23.292;2023-03-02T04:38:28;94548.34;;;4.02;100.00
9676;BME280;4876;42.656;23.292;2023-03-02T04:40:55;94551.47;;;4.04;100.00
9676;BME280;4876;42.656;23.292;2023-03-02T04:43:22;94554.31;;;4.03;100.00
9676;BME280;4876;42.656;23.292;2023-03-02T04:45:51;94549.38;;;3.96;100.00
9676;BME280;4876;42.656;23.292;2023-03-02T04:48:20;94559.28;;;3.99;100.00
9676;BME280;4876;42.656;23.292;2023-03-02T04:50:47;94559.28;;;4.04;100.00
9676;BME280;4876;42.656;23.292;2023-03-02T04:53:15;94559.00;;;4.01;100.00
9676;BME280;4876;42.656;23.292;2023-03-02T04:55:42;94559.00;;;4.06;100.00
9676;BME280;4876;42.656;23.292;2023-03-02T04:58:09;94560.56;;;4.12;100.00
9676;BME280;4876;42.656;23.292;2023-03-02T05:00:36;94565.00;;;4.17;100.00
9676;BME280;4876;42.656;23.292;2023-03-02T05:03:03;94552.22;;;4.15;100.00
9676;BME280;4876;42.656;23.292;2023-03-02T05:05:30;94553.00;;;4.16;100.00
9676;BME280;4876;42.656;23.292;2023-03-02T05:07:57;94542.63;;;4.05;100.00
9676;BME280;4876;42.656;23.292;2023-03-02T05:10:26;94554.59;;;4.17;100.00
9676;BME280;4876;42.656;23.292;2023-03-02T05:12:53;94563.16;;;4.12;100.00
9676;BME280;4876;42.656;23.292;2023-03-02T05:15:23;94555.63;;;4.11;100.00
9676;BME280;4876;42.656;23.292;2023-03-02T05:17:50;94555.09;;;4.09;100.00
9676;BME280;4876;42.656;23.292;2023-03-02T05:20:18;94557.47;;;4.05;100.00
9676;BME280;4876;42.656;23.292;2023-03-02T05:22:45;94562.91;;;4.09;100.00
9676;BME280;4876;42.656;23.292;2023-03-02T05:25:12;94566.03;;;4.11;100.00
9676;BME280;4876;42.656;23.292;2023-03-02T05:27:40;94568.38;;;4.17;100.00
9676;BME280;4876;42.656;23.292;2023-03-02T05:30:08;94569.41;;;4.16;100.00
9676;BME280;4876;42.656;23.292;2023-03-02T05:32:35;94567.84;;;4.15;100.00
9676;BME280;4876;42.656;23.292;2023-03-02T05:35:02;94573.81;;;4.26;100.00
9676;BME280;4876;42.656;23.292;2023-03-02T05:37:29;94577.97;;;4.27;100.00
9676;BME280;4876;42.656;23.292;2023-03-02T05:39:56;94580.06;;;4.25;100.00
9676;BME280;4876;42.656;23.292;2023-03-02T05:42:23;94574.84;;;4.25;100.00
9676;BME280;4876;42.656;23.292;2023-03-02T05:44:51;94574.06;;;4.29;100.00
9676;BME280;4876;42.656;23.292;2023-03-02T05:47:17;94575.63;;;4.20;100.00
9676;BME280;4876;42.656;23.292;2023-03-02T05:49:44;94582.94;;;4.23;100.00
9676;BME280;4876;42.656;23.292;2023-03-02T05:52:11;94576.19;;;4.22;100.00
9676;BME280;4876;42.656;23.292;2023-03-02T05:54:38;94571.41;;;4.55;100.00
9676;BME280;4876;42.656;23.292;2023-03-02T05:57:05;94575.00;;;4.59;100.00
9676;BME280;4876;42.656;23.292;2023-03-02T05:59:32;94579.13;;;4.75;100.00
9676;BME280;4876;42.656;23.292;2023-03-02T06:02:00;94579.13;;;4.75;100.00
9676;BME280;4876;42.656;23.292;2023-03-02T06:04:27;94576.25;;;4.77;100.00
9676;BME280;4876;42.656;23.292;2023-03-02T06:06:54;94585.91;;;4.71;100.00
9676;BME280;4876;42.656;23.292;2023-03-02T06:09:21;94585.41;;;4.69;100.00
9676;BME280;4876;42.656;23.292;2023-03-02T06:11:47;94584.94;;;4.57;100.00
9676;BME280;4876;42.656;23.292;2023-03-02T06:14:15;94591.19;;;4.56;100.00
9676;BME280;4876;42.656;23.292;2023-03-02T06:16:42;94586.50;;;4.53;100.00
9676;BME280;4876;42.656;23.292;2023-03-02T06:19:10;94596.41;;;4.41;100.00
9676;BME280;4876;42.656;23.292;2023-03-02T06:21:37;94601.13;;;4.39;100.00
9676;BME280;4876;42.656;23.292;2023-03-02T06:24:04;94602.16;;;4.38;100.00
9676;BME280;4876;42.656;23.292;2023-03-02T06:26:31;94600.09;;;4.29;100.00
9676;BME280;4876;42.656;23.292;2023-03-02T06:28:58;94602.94;;;4.33;100.00
9676;BME280;4876;42.656;23.292;2023-03-02T06:31:24;94599.06;;;4.25;100.00
9676;BME280;4876;42.656;23.292;2023-03-02T06:33:51;94603.72;;;4.28;100.00
9676;BME280;4876;42.656;23.292;2023-03-02T06:36:19;94608.41;;;4.31;100.00
9676;BME280;4876;42.656;23.292;2023-03-02T06:38:46;94608.94;;;4.39;100.00
9676;BME280;4876;42.656;23.292;2023-03-02T06:41:13;94602.66;;;4.45;100.00
9676;BME280;4876;42.656;23.292;2023-03-02T06:43:40;94597.22;;;4.36;100.00
9676;BME280;4876;42.656;23.292;2023-03-02T06:46:07;94585.50;;;4.39;100.00
9676;BME280;4876;42.656;23.292;2023-03-02T06:48:34;94606.81;;;4.41;100.00
9676;BME280;4876;42.656;23.292;2023-03-02T06:51:01;94607.09;;;4.44;100.00
9676;BME280;4876;42.656;23.292;2023-03-02T06:53:29;94601.63;;;4.41;100.00
9676;BME280;4876;42.656;23.292;2023-03-02T06:55:56;94591.25;;;4.30;100.00
9676;BME280;4876;42.656;23.292;2023-03-02T06:58:22;94594.09;;;4.34;100.00
9676;BME280;4876;42.656;23.292;2023-03-02T07:00:49;94597.00;;;4.22;100.00
9676;BME280;4876;42.656;23.292;2023-03-02T07:03:16;94605.81;;;4.26;100.00
9676;BME280;4876;42.656;23.292;2023-03-02T07:05:43;94595.41;;;4.31;100.00
9676;BME280;4876;42.656;23.292;2023-03-02T07:08:09;94597.22;;;4.41;100.00
9676;BME280;4876;42.656;23.292;2023-03-02T07:10:37;94592.78;;;4.42;100.00
9676;BME280;4876;42.656;23.292;2023-03-02T07:13:04;94598.00;;;4.37;100.00
9676;BME280;4876;42.656;23.292;2023-03-02T07:15:31;94596.69;;;4.34;100.00
9676;BME280;4876;42.656;23.292;2023-03-02T07:17:58;94602.16;;;4.38;100.00
9676;BME280;4876;42.656;23.292;2023-03-02T07:20:24;94602.94;;;4.38;100.00
9676;BME280;4876;42.656;23.292;2023-03-02T07:22:51;94588.88;;;4.39;100.00
9676;BME280;4876;42.656;23.292;2023-03-02T07:25:18;94598.00;;;4.42;100.00
9676;BME280;4876;42.656;23.292;2023-03-02T07:27:46;94597.94;;;4.52;100.00
9676;BME280;4876;42.656;23.292;2023-03-02T07:30:13;94593.53;;;4.52;100.00
9676;BME280;4876;42.656;23.292;2023-03-02T07:32:43;94606.31;;;4.49;100.00
9676;BME280;4876;42.656;23.292;2023-03-02T07:35:10;94604.47;;;4.49;100.00
9676;BME280;4876;42.656;23.292;2023-03-02T07:37:36;94606.81;;;4.51;100.00
9676;BME280;4876;42.656;23.292;2023-03-02T07:40:05;94587.31;;;4.43;100.00
9676;BME280;4876;42.656;23.292;2023-03-02T07:42:32;94615.41;;;4.56;100.00
9676;BME280;4876;42.656;23.292;2023-03-02T07:45:01;94613.03;;;4.65;100.00
9676;BME280;4876;42.656;23.292;2023-03-02T07:47:28;94608.84;;;4.69;100.00
9676;BME280;4876;42.656;23.292;2023-03-02T07:49:55;94605.75;;;4.67;100.00
9676;BME280;4876;42.656;23.292;2023-03-02T07:52:22;94605.44;;;4.79;100.00
9676;BME280;4876;42.656;23.292;2023-03-02T07:54:49;94607.75;;;4.85;100.00
9676;BME280;4876;42.656;23.292;2023-03-02T07:57:16;94610.31;;;4.91;100.00
9676;BME280;4876;42.656;23.292;2023-03-02T07:59:43;94602.06;;;4.78;100.00
9676;BME280;4876;42.656;23.292;2023-03-02T08:02:14;94600.44;;;4.88;100.00
9676;BME280;4876;42.656;23.292;2023-03-02T08:04:41;94596.75;;;4.99;100.00
9676;BME280;4876;42.656;23.292;2023-03-02T08:07:08;94594.91;;;5.04;100.00
9676;BME280;4876;42.656;23.292;2023-03-02T08:09:36;94597.25;;;5.01;100.00
9676;BME280;4876;42.656;23.292;2023-03-02T08:12:03;94604.56;;;5.04;100.00
9676;BME280;4876;42.656;23.292;2023-03-02T08:14:30;94604.84;;;4.97;100.00
9676;BME280;4876;42.656;23.292;2023-03-02T08:16:57;94601.38;;;5.12;100.00
9676;BME280;4876;42.656;23.292;2023-03-02T08:19:25;94592.50;;;5.13;100.00
9676;BME280;4876;42.656;23.292;2023-03-02T08:21:52;94595.59;;;5.20;100.00
9676;BME280;4876;42.656;23.292;2023-03-02T08:24:19;94589.13;;;5.18;100.00
9676;BME280;4876;42.656;23.292;2023-03-02T08:26:45;94595.09;;;5.18;100.00
9676;BME280;4876;42.656;23.292;2023-03-02T08:29:12;94588.59;;;5.16;100.00
9676;BME280;4876;42.656;23.292;2023-03-02T08:31:39;94589.84;;;5.28;100.00
9676;BME280;4876;42.656;23.292;2023-03-02T08:34:06;94582.75;;;5.34;100.00
9676;BME280;4876;42.656;23.292;2023-03-02T08:36:34;94586.66;;;5.36;100.00
9676;BME280;4876;42.656;23.292;2023-03-02T08:39:01;94586.66;;;5.36;100.00
9676;BME280;4876;42.656;23.292;2023-03-02T08:41:28;94595.28;;;5.32;100.00
9676;BME280;4876;42.656;23.292;2023-03-02T08:43:54;94589.84;;;5.28;100.00
9676;BME280;4876;42.656;23.292;2023-03-02T08:46:21;94605.53;;;5.18;100.00
9676;BME280;4876;42.656;23.292;2023-03-02T08:48:48;94605.09;;;5.01;100.00
9676;BME280;4876;42.656;23.292;2023-03-02T08:51:17;94584.00;;;4.97;100.00
9676;BME280;4876;42.656;23.292;2023-03-02T08:53:47;94586.56;;;5.02;100.00
9676;BME280;4876;42.656;23.292;2023-03-02T08:56:19;94584.72;;;5.08;100.00
9676;BME280;4876;42.656;23.292;2023-03-02T08:58:46;94597.25;;;5.06;100.00
9676;BME280;4876;42.656;23.292;2023-03-02T09:01:15;94542.09;;;4.83;100.00
9676;BME280;4876;42.656;23.292;2023-03-02T09:03:42;94579.75;;;5.11;100.00
9676;BME280;4876;42.656;23.292;2023-03-02T09:06:09;94580.41;;;5.32;100.00
9676;BME280;4876;42.656;23.292;2023-03-02T09:08:36;94571.53;;;5.33;100.00
9676;BME280;4876;42.656;23.292;2023-03-02T09:11:05;94570.72;;;5.43;100.00
9676;BME280;4876;42.656;23.292;2023-03-02T09:13:32;94571.34;;;5.64;100.00
9676;BME280;4876;42.656;23.292;2023-03-02T09:15:59;94573.44;;;5.62;100.00
9676;BME280;4876;42.656;23.292;2023-03-02T09:18:26;94569.31;;;5.56;100.00
9676;BME280;4876;42.656;23.292;2023-03-02T09:20:56;94576.66;;;5.54;100.00
9676;BME280;4876;42.656;23.292;2023-03-02T09:23:26;94562.72;;;5.63;100.00
9676;BME280;4876;42.656;23.292;2023-03-02T09:25:53;94569.88;;;5.53;100.00
9676;BME280;4876;42.656;23.292;2023-03-02T09:28:21;94569.94;;;5.43;100.00
9676;BME280;4876;42.656;23.292;2023-03-02T09:30:49;94561.59;;;5.40;100.00
9676;BME280;4876;42.656;23.292;2023-03-02T09:33:17;94570.53;;;5.29;100.00
9676;BME280;4876;42.656;23.292;2023-03-02T09:35:44;94564.66;;;5.53;100.00
9676;BME280;4876;42.656;23.292;2023-03-02T09:38:11;94569.50;;;5.64;100.00
9676;BME280;4876;42.656;23.292;2023-03-02T09:40:49;94539.78;;;5.26;100.00
9676;BME280;4876;42.656;23.292;2023-03-02T09:43:33;94554.81;;;5.39;100.00
9676;BME280;4876;42.656;23.292;2023-03-02T09:46:13;94552.94;;;5.45;100.00
9676;BME280;4876;42.656;23.292;2023-03-02T09:48:51;94555.72;;;5.59;100.00
9676;BME280;4876;42.656;23.292;2023-03-02T09:51:32;94567.47;;;5.56;100.00
9676;BME280;4876;42.656;23.292;2023-03-02T09:56:53;94558.88;;;5.56;99.69
9676;BME280;4876;42.656;23.292;2023-03-02T09:59:25;94548.38;;;5.66;99.02
9676;BME280;4876;42.656;23.292;2023-03-02T10:01:58;94560.44;;;5.57;98.48
9676;BME280;4876;42.656;23.292;2023-03-02T10:04:29;94556.66;;;5.73;98.94
9676;BME280;4876;42.656;23.292;2023-03-02T10:07:09;94562.28;;;5.90;98.22
9676;BME280;4876;42.656;23.292;2023-03-02T10:09:37;94564.59;;;5.97;98.51
9676;BME280;4876;42.656;23.292;2023-03-02T10:12:16;94570.09;;;5.90;97.25
9676;BME280;4876;42.656;23.292;2023-03-02T10:14:52;94569.56;;;5.93;97.45
9676;BME280;4876;42.656;23.292;2023-03-02T10:17:39;94583.13;;;5.96;96.12
9676;BME280;4876;42.656;23.292;2023-03-02T10:20:13;94559.81;;;5.70;96.16
9676;BME280;4876;42.656;23.292;2023-03-02T10:22:45;94579.09;;;5.74;97.36
9676;BME280;4876;42.656;23.292;2023-03-02T10:25:24;94565.63;;;5.62;97.30
9676;BME280;4876;42.656;23.292;2023-03-02T10:28:00;94572.34;;;5.68;97.89
9676;BME280;4876;42.656;23.292;2023-03-02T10:30:30;94572.88;;;5.65;97.08
9676;BME280;4876;42.656;23.292;2023-03-02T10:33:01;94568.75;;;5.59;96.34
9676;BME280;4876;42.656;23.292;2023-03-02T10:35:29;94577.59;;;5.63;97.72
9676;BME280;4876;42.656;23.292;2023-03-02T10:37:59;94564.66;;;5.53;96.69
9676;BME280;4876;42.656;23.292;2023-03-02T10:40:37;94561.53;;;5.51;96.99
9676;BME280;4876;42.656;23.292;2023-03-02T10:43:06;94482.44;;;4.82;96.73
9676;BME280;4876;42.656;23.292;2023-03-02T10:45:38;94558.03;;;5.26;96.60
9676;BME280;4876;42.656;23.292;2023-03-02T10:48:06;94560.59;;;5.36;97.22
9676;BME280;4876;42.656;23.292;2023-03-02T10:50:33;94557.47;;;5.34;97.46
9676;BME280;4876;42.656;23.292;2023-03-02T10:53:01;94554.91;;;5.29;96.77
9676;BME280;4876;42.656;23.292;2023-03-02T10:55:28;94558.47;;;5.38;97.86
9676;BME280;4876;42.656;23.292;2023-03-02T10:57:59;94552.38;;;5.53;97.31
9676;BME280;4876;42.656;23.292;2023-03-02T11:00:28;94549.22;;;5.56;97.01
9676;BME280;4876;42.656;23.292;2023-03-02T11:02:58;94543.69;;;5.63;95.88
9676;BME280;4876;42.656;23.292;2023-03-02T11:05:29;94539.72;;;5.71;95.27
9676;BME280;4876;42.656;23.292;2023-03-02T11:07:57;94501.06;;;5.44;94.63
9676;BME280;4876;42.656;23.292;2023-03-02T11:10:27;94539.81;;;5.60;94.85
9676;BME280;4876;42.656;23.292;2023-03-02T11:12:57;94503.41;;;5.45;95.36
9676;BME280;4876;42.656;23.292;2023-03-02T11:15:27;94527.50;;;5.66;93.97
9676;BME280;4876;42.656;23.292;2023-03-02T11:18:00;94521.25;;;5.67;93.91
9676;BME280;4876;42.656;23.292;2023-03-02T11:20:30;94509.47;;;5.70;92.81
9676;BME280;4876;42.656;23.292;2023-03-02T11:23:05;94519.78;;;5.85;93.63
9676;BME280;4876;42.656;23.292;2023-03-02T11:25:35;94513.25;;;5.82;92.94
9676;BME280;4876;42.656;23.292;2023-03-02T11:31:04;94518.31;;;5.74;91.82
9676;BME280;4876;42.656;23.292;2023-03-02T11:33:38;94517.22;;;5.80;91.91
9676;BME280;4876;42.656;23.292;2023-03-02T11:36:13;94498.63;;;5.86;91.67
9676;BME280;4876;42.656;23.292;2023-03-02T11:38:47;94513.81;;;5.79;90.26
9676;BME280;4876;42.656;23.292;2023-03-02T11:41:33;94516.88;;;5.86;91.30
9676;BME280;4876;42.656;23.292;2023-03-02T11:44:06;94511.09;;;5.89;91.12
9676;BME280;4876;42.656;23.292;2023-03-02T11:46:38;94515.78;;;5.98;90.65
9676;BME280;4876;42.656;23.292;2023-03-02T11:49:12;94513.72;;;5.89;90.64
9676;BME280;4876;42.656;23.292;2023-03-02T11:51:50;94520.38;;;6.06;90.62
9676;BME280;4876;42.656;23.292;2023-03-02T11:54:30;94505.84;;;6.00;90.84
9676;BME280;4876;42.656;23.292;2023-03-02T11:56:59;94510.25;;;6.28;90.30
9676;BME280;4876;42.656;23.292;2023-03-02T11:59:27;94514.03;;;6.41;89.55
9676;BME280;4876;42.656;23.292;2023-03-02T12:01:54;94514.47;;;6.48;88.61
9676;BME280;4876;42.656;23.292;2023-03-02T12:04:30;94517.63;;;6.45;88.18
9676;BME280;4876;42.656;23.292;2023-03-02T12:06:58;94516.50;;;6.51;88.32
9676;BME280;4876;42.656;23.292;2023-03-02T12:09:31;94520.13;;;6.55;86.76
9676;BME280;4876;42.656;23.292;2023-03-02T12:12:16;94521.53;;;6.47;86.28
9676;BME280;4876;42.656;23.292;2023-03-02T12:14:49;94520.19;;;6.26;86.88
9676;BME280;4876;42.656;23.292;2023-03-02T12:17:20;94511.84;;;6.24;86.85
9676;BME280;4876;42.656;23.292;2023-03-02T12:19:51;94511.75;;;6.34;87.48
9676;BME280;4876;42.656;23.292;2023-03-02T12:22:26;94501.91;;;6.26;87.36
9676;BME280;4876;42.656;23.292;2023-03-02T12:25:00;94496.84;;;6.35;87.68
9676;BME280;4876;42.656;23.292;2023-03-02T12:27:34;94508.22;;;6.44;87.36
9676;BME280;4876;42.656;23.292;2023-03-02T12:30:19;94490.72;;;6.44;86.63
9676;BME280;4876;42.656;23.292;2023-03-02T12:32:59;94499.56;;;6.48;86.53
9676;BME280;4876;42.656;23.292;2023-03-02T12:35:29;94495.13;;;6.49;87.07
9676;BME280;4876;42.656;23.292;2023-03-02T12:37:58;94499.50;;;6.54;86.60
9676;BME280;4876;42.656;23.292;2023-03-02T12:40:39;94499.31;;;6.69;86.88
9676;BME280;4876;42.656;23.292;2023-03-02T12:43:24;94503.03;;;6.63;86.09
9676;BME280;4876;42.656;23.292;2023-03-02T12:46:06;94504.41;;;6.36;86.47
9676;BME280;4876;42.656;23.292;2023-03-02T12:48:44;94502.34;;;6.33;87.01
9676;BME280;4876;42.656;23.292;2023-03-02T12:51:17;94499.72;;;6.33;87.63
9676;BME280;4876;42.656;23.292;2023-03-02T12:53:46;94486.03;;;6.23;87.47
9676;BME280;4876;42.656;23.292;2023-03-02T12:56:21;94492.06;;;6.18;87.57
9676;BME280;4876;42.656;23.292;2023-03-02T12:58:49;94484.28;;;6.37;87.98
9676;BME280;4876;42.656;23.292;2023-03-02T13:01:20;94482.94;;;6.39;87.35
9676;BME280;4876;42.656;23.292;2023-03-02T13:03:48;94481.22;;;6.54;86.86
9676;BME280;4876;42.656;23.292;2023-03-02T13:06:17;94473.56;;;6.38;85.40
9676;BME280;4876;42.656;23.292;2023-03-02T13:08:45;94424.28;;;6.08;86.33
9676;BME280;4876;42.656;23.292;2023-03-02T13:11:20;94474.63;;;6.37;85.38
9676;BME280;4876;42.656;23.292;2023-03-02T13:13:48;94465.84;;;6.52;86.12
9676;BME280;4876;42.656;23.292;2023-03-02T13:16:20;94470.19;;;6.57;85.49
9676;BME280;4876;42.656;23.292;2023-03-02T13:18:48;94470.41;;;6.41;85.50
9676;BME280;4876;42.656;23.292;2023-03-02T13:21:21;94470.16;;;6.38;86.52
9676;BME280;4876;42.656;23.292;2023-03-02T13:23:50;94468.09;;;6.16;86.84
9676;BME280;4876;42.656;23.292;2023-03-02T13:26:25;94468.13;;;6.11;88.11
9676;BME280;4876;42.656;23.292;2023-03-02T13:29:03;94464.50;;;6.07;88.17
9676;BME280;4876;42.656;23.292;2023-03-02T13:31:31;94439.03;;;5.99;87.79
9676;BME280;4876;42.656;23.292;2023-03-02T13:33:58;94457.78;;;6.01;87.90
9676;BME280;4876;42.656;23.292;2023-03-02T13:36:28;94450.09;;;5.85;88.13
9676;BME280;4876;42.656;23.292;2023-03-02T13:38:57;94443.13;;;6.05;89.06